Time;durP1;ratioP1;P1;durP2;ratioP2;P2;SDS_P1;SDS_P2;PMS_P1;PMS_P2;Temp;Humidity;BMP_temperature;BMP_pressure;BME280_temperature;BME280_humidity;BME280_pressure;Samples;Min_cycle;Max_cycle;Signal;HPM_P1;HPM_P2
2024/04/16 00:00:35;;;;;;;3.10;1.17;;;5.40;99.90;;;;;;5381836;26;21128;-73
2024/04/16 00:03:01;;;;;;;1.00;0.80;;;5.40;99.90;;;;;;5381585;26;20780;-74
2024/04/16 00:05:27;;;;;;;3.27;1.07;;;5.40;99.90;;;;;;5382534;26;20490;-73
2024/04/16 00:07:53;;;;;;;1.20;1.10;;;5.40;99.90;;;;;;5382188;26;20222;-74
2024/04/16 00:10:19;;;;;;;0.80;0.67;;;5.50;99.90;;;;;;5381732;26;20512;-73
2024/04/16 00:12:44;;;;;;;10.70;1.10;;;5.50;99.90;;;;;;5382235;26;20221;-73
2024/04/16 00:15:10;;;;;;;1.47;0.97;;;5.50;99.90;;;;;;5382258;26;20256;-73
2024/04/16 00:17:35;;;;;;;1.00;0.80;;;5.50;99.90;;;;;;5382324;26;20718;-73
2024/04/16 00:20:01;;;;;;;1.60;0.90;;;5.60;99.90;;;;;;5381315;26;20252;-73
2024/04/16 00:22:27;;;;;;;4.90;0.80;;;5.70;99.90;;;;;;5382221;26;20260;-73
2024/04/16 00:24:52;;;;;;;3.03;0.97;;;5.70;99.90;;;;;;5382163;26;20221;-73
2024/04/16 00:27:18;;;;;;;4.77;1.30;;;5.80;99.90;;;;;;5382382;26;20692;-74
2024/04/16 00:29:44;;;;;;;1.00;0.80;;;5.80;99.90;;;;;;5381374;26;20672;-73
2024/04/16 00:32:10;;;;;;;1.03;0.60;;;5.80;99.90;;;;;;5382104;26;20279;-73
2024/04/16 00:34:36;;;;;;;1.40;0.90;;;5.60;99.90;;;;;;5382116;26;20427;-73
2024/04/16 00:37:02;;;;;;;1.73;0.87;;;5.60;99.90;;;;;;5374969;26;20519;-73
2024/04/16 00:39:27;;;;;;;2.03;0.93;;;5.60;99.90;;;;;;5377965;26;20268;-74
2024/04/16 00:41:53;;;;;;;4.63;0.90;;;5.50;99.90;;;;;;5380829;26;21041;-72
2024/04/16 00:44:20;;;;;;;1.10;0.83;;;5.60;99.90;;;;;;5379816;26;20214;-73
2024/04/16 00:46:46;;;;;;;5.10;0.93;;;5.70;99.90;;;;;;5381842;26;20651;-74
2024/04/16 00:49:11;;;;;;;2.07;1.00;;;5.70;99.90;;;;;;5381836;26;20432;-73
2024/04/16 00:51:37;;;;;;;3.13;0.77;;;5.90;99.90;;;;;;5381364;26;20318;-73
2024/04/16 00:54:03;;;;;;;5.30;1.00;;;5.90;99.90;;;;;;5379867;26;20206;-73
2024/04/16 00:56:29;;;;;;;0.80;0.70;;;6.10;99.90;;;;;;5381460;26;20206;-73
2024/04/16 00:58:56;;;;;;;1.00;0.87;;;6.10;99.90;;;;;;5381535;26;20443;-73
2024/04/16 01:01:21;;;;;;;2.80;1.10;;;6.20;99.90;;;;;;5383707;26;20467;-73
2024/04/16 01:03:47;;;;;;;1.60;1.50;;;6.10;99.90;;;;;;5383135;26;20496;-73
2024/04/16 01:06:12;;;;;;;7.60;1.20;;;6.10;99.90;;;;;;5381785;26;20222;-73
2024/04/16 01:08:38;;;;;;;1.63;1.10;;;6.10;99.90;;;;;;5381722;26;20213;-74
2024/04/16 01:11:03;;;;;;;9.00;1.30;;;6.10;99.90;;;;;;5379241;26;20233;-73
2024/04/16 01:13:29;;;;;;;2.17;1.00;;;6.10;99.90;;;;;;5381110;26;20697;-73
2024/04/16 01:15:54;;;;;;;1.47;1.07;;;6.00;99.90;;;;;;5381468;26;20206;-73
2024/04/16 01:18:20;;;;;;;2.27;1.50;;;6.00;99.90;;;;;;5381506;26;20277;-73
2024/04/16 01:20:46;;;;;;;6.70;1.40;;;5.90;99.90;;;;;;5380794;26;20225;-73
2024/04/16 01:23:11;;;;;;;2.50;1.07;;;5.80;99.90;;;;;;5380806;26;20209;-73
2024/04/16 01:25:37;;;;;;;3.63;0.80;;;5.80;99.90;;;;;;5380873;26;20321;-73
2024/04/16 01:28:03;;;;;;;1.47;1.37;;;5.80;99.90;;;;;;5381507;26;20808;-73
2024/04/16 01:30:28;;;;;;;1.47;0.80;;;5.70;99.90;;;;;;5380787;26;20213;-73
2024/04/16 01:32:54;;;;;;;1.80;1.10;;;5.70;99.90;;;;;;5374904;26;20259;-73
2024/04/16 01:35:19;;;;;;;2.63;1.30;;;5.60;99.90;;;;;;5378556;26;20222;-73
2024/04/16 01:37:45;;;;;;;2.53;1.53;;;5.50;99.90;;;;;;5370331;26;20261;-73
2024/04/16 01:40:11;;;;;;;1.07;0.90;;;5.50;99.90;;;;;;5380348;26;20226;-73
2024/04/16 01:42:37;;;;;;;1.40;1.00;;;5.50;99.90;;;;;;5380906;26;20268;-73
2024/04/16 01:45:03;;;;;;;3.80;1.00;;;5.40;99.90;;;;;;5380055;26;20955;-73
2024/04/16 01:47:28;;;;;;;1.30;1.07;;;5.40;99.90;;;;;;5379189;26;20245;-73
2024/04/16 01:49:54;;;;;;;3.80;0.90;;;5.30;99.90;;;;;;5379949;26;20751;-73
2024/04/16 01:52:19;;;;;;;1.87;0.83;;;5.30;99.90;;;;;;5380955;26;20257;-73
2024/04/16 01:54:45;;;;;;;1.33;1.00;;;5.30;99.90;;;;;;5380934;26;20256;-73
2024/04/16 01:57:10;;;;;;;6.97;1.40;;;5.20;99.90;;;;;;5380915;26;20251;-73
2024/04/16 01:59:36;;;;;;;3.00;0.97;;;5.30;99.90;;;;;;5380336;26;20210;-73
2024/04/16 02:02:01;;;;;;;2.03;1.10;;;5.20;99.90;;;;;;5380397;26;20594;-73
2024/04/16 02:04:27;;;;;;;2.40;0.90;;;5.20;99.90;;;;;;5380811;26;20597;-73
2024/04/16 02:06:52;;;;;;;2.70;0.90;;;5.20;99.90;;;;;;5379030;26;20239;-73
2024/04/16 02:09:18;;;;;;;1.07;0.90;;;5.20;99.90;;;;;;5380306;26;20586;-73
2024/04/16 02:11:44;;;;;;;1.80;1.33;;;5.10;99.90;;;;;;5380478;26;20225;-73
2024/04/16 02:14:10;;;;;;;7.80;1.80;;;5.10;99.90;;;;;;5379950;26;20276;-73
2024/04/16 02:16:35;;;;;;;5.30;1.13;;;5.20;99.90;;;;;;5380747;26;20436;-72
2024/04/16 02:19:01;;;;;;;1.80;1.00;;;5.10;99.90;;;;;;5380735;26;20384;-74
2024/04/16 02:21:27;;;;;;;1.17;1.00;;;5.10;99.90;;;;;;5380279;26;20252;-74
2024/04/16 02:23:52;;;;;;;2.33;1.00;;;5.10;99.90;;;;;;5380674;26;20435;-74
2024/04/16 02:26:18;;;;;;;5.03;1.10;;;5.10;99.90;;;;;;5380557;26;20243;-73
2024/04/16 02:28:44;;;;;;;1.63;1.17;;;5.10;99.90;;;;;;5380442;26;20210;-74
2024/04/16 02:31:10;;;;;;;5.40;3.40;;;5.10;99.90;;;;;;5380004;26;20261;-73
2024/04/16 02:33:35;;;;;;;1.97;1.23;;;5.10;99.90;;;;;;5380456;26;20526;-73
2024/04/16 02:36:02;;;;;;;1.10;0.87;;;5.00;99.90;;;;;;5378539;26;20279;-74
2024/04/16 02:38:28;;;;;;;1.93;1.50;;;5.00;99.90;;;;;;5366820;26;20993;-74
2024/04/16 02:40:53;;;;;;;1.20;0.90;;;5.00;99.90;;;;;;5379405;26;20464;-73
2024/04/16 02:43:19;;;;;;;5.77;1.30;;;5.00;99.90;;;;;;5380143;26;20489;-73
2024/04/16 02:45:44;;;;;;;7.93;4.90;;;5.00;99.90;;;;;;5380202;26;20325;-73
2024/04/16 02:48:10;;;;;;;3.57;1.67;;;5.00;99.90;;;;;;5380204;26;20256;-73
2024/04/16 02:50:35;;;;;;;3.47;1.50;;;5.00;99.90;;;;;;5377862;26;20341;-73
2024/04/16 02:53:01;;;;;;;4.53;2.33;;;5.10;99.90;;;;;;5380245;26;20218;-74
2024/04/16 02:55:27;;;;;;;1.20;0.90;;;5.10;99.90;;;;;;5380218;26;20213;-73
2024/04/16 02:57:52;;;;;;;5.53;1.90;;;5.10;99.90;;;;;;5380303;26;20218;-73
2024/04/16 03:00:18;;;;;;;9.20;4.70;;;5.10;99.90;;;;;;5379570;26;20225;-73
2024/04/16 03:02:43;;;;;;;6.00;2.67;;;5.20;99.90;;;;;;5380040;26;20677;-73
2024/04/16 03:05:09;;;;;;;3.00;0.80;;;5.30;99.90;;;;;;5380329;26;20260;-73
2024/04/16 03:07:34;;;;;;;1.20;1.03;;;5.40;99.90;;;;;;5380014;26;20229;-73
2024/04/16 03:10:00;;;;;;;7.47;1.60;;;5.50;99.90;;;;;;5379458;26;20320;-73
2024/04/16 03:12:25;;;;;;;3.13;1.10;;;5.60;99.90;;;;;;5379876;26;20218;-73
2024/04/16 03:14:53;;;;;;;3.90;1.03;;;5.60;99.90;;;;;;5379929;26;20326;-73
2024/04/16 03:17:22;;;;;;;1.20;0.70;;;5.60;99.90;;;;;;5379744;26;20277;-73
2024/04/16 03:19:47;;;;;;;1.10;0.83;;;5.70;99.90;;;;;;5379510;26;20464;-73
2024/04/16 03:22:13;;;;;;;4.30;1.43;;;5.70;99.90;;;;;;5383158;26;20540;-73
2024/04/16 03:24:39;;;;;;;3.07;1.20;;;5.80;99.90;;;;;;5383107;26;20260;-73
2024/04/16 03:27:04;;;;;;;5.13;1.30;;;5.80;99.90;;;;;;5382997;26;20214;-74
2024/04/16 03:29:30;;;;;;;3.53;1.17;;;5.90;99.90;;;;;;5383695;26;20218;-73
2024/04/16 03:31:55;;;;;;;4.13;1.27;;;5.80;99.90;;;;;;5387378;26;20221;-74
2024/04/16 03:34:21;;;;;;;4.97;1.23;;;5.80;99.90;;;;;;5383350;26;20795;-73
2024/04/16 03:36:47;;;;;;;4.07;1.13;;;5.90;99.90;;;;;;5374217;26;20632;-74
2024/04/16 03:39:12;;;;;;;8.43;1.47;;;5.90;99.90;;;;;;5375288;26;20260;-74
2024/04/16 03:41:38;;;;;;;1.40;0.87;;;5.90;99.90;;;;;;5382303;26;20221;-74
2024/04/16 03:44:03;;;;;;;2.50;1.20;;;5.90;99.90;;;;;;5382464;26;20260;-73
2024/04/16 03:46:29;;;;;;;4.10;1.20;;;6.00;99.90;;;;;;5381177;26;20244;-74
2024/04/16 03:48:54;;;;;;;2.43;1.50;;;5.90;99.90;;;;;;5382868;26;20209;-74
2024/04/16 03:51:20;;;;;;;3.83;1.43;;;6.00;99.90;;;;;;5382676;26;20279;-74
2024/04/16 03:53:46;;;;;;;5.13;1.63;;;6.00;99.90;;;;;;5380871;26;20221;-73
2024/04/16 03:56:11;;;;;;;3.57;1.30;;;6.10;99.90;;;;;;5382239;26;20213;-74
2024/04/16 03:58:44;;;;;;;2.43;1.40;;;6.00;99.90;;;;;;5382569;26;20841;-74
2024/04/16 04:01:12;;;;;;;3.00;1.27;;;6.10;99.90;;;;;;5381912;26;20285;-74
2024/04/16 04:03:39;;;;;;;1.63;1.10;;;6.10;99.90;;;;;;5382231;26;20949;-73
2024/04/16 04:06:05;;;;;;;2.53;1.30;;;6.00;99.90;;;;;;5382240;26;20851;-74
2024/04/16 04:08:30;;;;;;;4.23;1.97;;;6.10;99.90;;;;;;5375217;26;20540;-74
2024/04/16 04:10:56;;;;;;;3.33;2.10;;;6.10;99.90;;;;;;5378714;26;20237;-74
2024/04/16 04:13:22;;;;;;;5.20;2.33;;;6.10;99.90;;;;;;5382255;26;20221;-74
2024/04/16 04:15:47;;;;;;;1.10;1.00;;;6.10;99.90;;;;;;5382465;26;20210;-74
2024/04/16 04:18:13;;;;;;;9.80;2.63;;;6.00;99.90;;;;;;5382275;26;20394;-74
2024/04/16 04:20:38;;;;;;;2.83;1.10;;;6.00;99.90;;;;;;5381457;26;20775;-73
2024/04/16 04:23:04;;;;;;;8.50;2.40;;;6.00;99.90;;;;;;5382260;26;20210;-73
2024/04/16 04:25:30;;;;;;;3.23;1.13;;;6.00;99.90;;;;;;5381335;26;20260;-73
2024/04/16 04:27:55;;;;;;;2.30;1.30;;;6.00;99.90;;;;;;5382110;26;20257;-74
2024/04/16 04:30:21;;;;;;;1.70;1.07;;;6.10;99.90;;;;;;5381149;26;20264;-73
2024/04/16 04:32:50;;;;;;;7.77;2.20;;;6.00;99.90;;;;;;5381648;26;20209;-74
2024/04/16 04:35:15;;;;;;;5.30;1.90;;;6.10;99.90;;;;;;5382117;26;20711;-73
2024/04/16 04:37:41;;;;;;;2.03;1.10;;;6.20;99.90;;;;;;5374683;26;20492;-73
2024/04/16 04:40:07;;;;;;;3.50;1.43;;;6.10;99.90;;;;;;5381656;26;20314;-73
2024/04/16 04:42:32;;;;;;;7.90;2.13;;;6.20;99.90;;;;;;5381565;26;20230;-73
2024/04/16 04:44:58;;;;;;;4.50;1.40;;;6.10;99.90;;;;;;5381690;26;20448;-73
2024/04/16 04:47:23;;;;;;;4.63;1.30;;;6.10;99.90;;;;;;5381464;26;20230;-74
2024/04/16 04:49:49;;;;;;;3.50;1.60;;;6.10;99.90;;;;;;5381444;26;20226;-74
2024/04/16 04:52:14;;;;;;;3.80;1.80;;;6.10;99.90;;;;;;5379950;26;20240;-74
2024/04/16 04:54:40;;;;;;;8.17;4.00;;;6.10;99.90;;;;;;5381410;26;20318;-73
2024/04/16 04:57:06;;;;;;;4.70;1.77;;;6.10;99.90;;;;;;5381834;26;20272;-74
2024/04/16 04:59:31;;;;;;;5.37;1.43;;;6.10;99.90;;;;;;5381147;26;20239;-74
2024/04/16 05:01:57;;;;;;;6.50;2.17;;;6.00;99.90;;;;;;5377801;26;20240;-74
2024/04/16 05:04:23;;;;;;;3.13;1.20;;;6.00;99.90;;;;;;5370072;26;20387;-75
2024/04/16 05:06:48;;;;;;;4.13;1.27;;;5.90;99.90;;;;;;5373606;26;20917;-74
2024/04/16 05:09:14;;;;;;;2.63;1.13;;;5.80;99.90;;;;;;5381395;26;20229;-73
2024/04/16 05:11:39;;;;;;;2.20;1.07;;;5.80;99.90;;;;;;5376705;26;20221;-74
2024/04/16 05:14:07;;;;;;;2.50;1.40;;;5.70;99.90;;;;;;5380288;26;20279;-74
2024/04/16 05:16:33;;;;;;;3.37;1.50;;;5.70;99.90;;;;;;5381458;26;20209;-74
2024/04/16 05:18:58;;;;;;;3.70;1.40;;;5.60;99.90;;;;;;5378286;26;20899;-74
2024/04/16 05:21:24;;;;;;;4.47;1.50;;;5.60;99.90;;;;;;5380877;26;20775;-73
2024/04/16 05:23:50;;;;;;;3.87;1.30;;;5.60;99.90;;;;;;5381199;26;20255;-73
2024/04/16 05:26:16;;;;;;;2.10;1.10;;;5.70;99.90;;;;;;5381466;26;20317;-74
2024/04/16 05:28:42;;;;;;;2.40;1.53;;;5.80;99.90;;;;;;5381485;26;20532;-74
2024/04/16 05:31:07;;;;;;;1.67;1.20;;;5.90;99.90;;;;;;5380573;26;20472;-74
2024/04/16 05:33:33;;;;;;;5.27;1.50;;;6.20;99.90;;;;;;5381100;26;20260;-74
2024/04/16 05:35:58;;;;;;;5.43;2.47;;;6.30;99.90;;;;;;5381832;26;20214;-74
2024/04/16 05:38:24;;;;;;;2.73;1.10;;;6.40;99.90;;;;;;5367767;26;20532;-74
2024/04/16 05:40:49;;;;;;;3.43;1.43;;;6.50;99.90;;;;;;5380417;26;20273;-73
2024/04/16 05:43:15;;;;;;;4.63;1.60;;;6.50;99.90;;;;;;5379750;26;20210;-74
2024/04/16 05:45:41;;;;;;;6.27;2.50;;;6.70;99.90;;;;;;5379277;26;20217;-74
2024/04/16 05:48:06;;;;;;;2.43;1.40;;;6.80;99.90;;;;;;5381169;26;20218;-74
2024/04/16 05:50:32;;;;;;;3.63;1.70;;;6.90;99.90;;;;;;5380638;26;20233;-73
2024/04/16 05:52:58;;;;;;;1.73;1.20;;;7.00;99.90;;;;;;5381138;26;20209;-73
2024/04/16 05:55:24;;;;;;;2.43;1.77;;;7.00;99.90;;;;;;5381401;26;21033;-73
2024/04/16 05:57:49;;;;;;;4.93;1.17;;;7.00;99.90;;;;;;5381034;26;20704;-73
2024/04/16 06:00:15;;;;;;;3.83;1.30;;;7.00;99.90;;;;;;5380340;26;20217;-73
2024/04/16 06:02:40;;;;;;;2.90;1.50;;;7.10;99.90;;;;;;5380919;26;20258;-74
2024/04/16 06:05:06;;;;;;;2.07;1.43;;;7.10;99.90;;;;;;5380562;26;20248;-74
2024/04/16 06:07:31;;;;;;;3.87;0.90;;;7.10;99.90;;;;;;5380261;26;20258;-73
2024/04/16 06:09:57;;;;;;;1.97;1.70;;;7.20;99.90;;;;;;5378575;26;20310;-74
2024/04/16 06:12:22;;;;;;;8.47;1.83;;;7.10;99.90;;;;;;5380731;26;20209;-73
2024/04/16 06:14:48;;;;;;;4.70;1.83;;;7.10;99.90;;;;;;5380811;26;20539;-73
2024/04/16 06:17:13;;;;;;;1.80;1.53;;;7.20;99.90;;;;;;5380692;26;20272;-73
2024/04/16 06:19:43;;;;;;;7.00;2.07;;;7.20;99.90;;;;;;5380112;26;20214;-74
2024/04/16 06:22:08;;;;;;;5.80;1.40;;;7.20;99.90;;;;;;5375418;26;20715;-74
2024/04/16 06:24:35;;;;;;;2.00;1.80;;;7.10;99.90;;;;;;5373293;26;20493;-73
2024/04/16 06:27:01;;;;;;;2.97;1.80;;;7.20;99.90;;;;;;5368478;26;20344;-74
2024/04/16 06:29:27;;;;;;;1.80;1.17;;;7.10;99.90;;;;;;5375164;26;20471;-74
2024/04/16 06:31:52;;;;;;;3.00;1.70;;;7.20;99.90;;;;;;5380175;26;20308;-74
2024/04/16 06:34:18;;;;;;;3.70;1.37;;;7.20;99.90;;;;;;5378714;26;20245;-73
2024/04/16 06:36:43;;;;;;;2.37;1.27;;;7.10;99.90;;;;;;5376841;26;20218;-73
2024/04/16 06:39:09;;;;;;;2.23;1.37;;;7.10;99.90;;;;;;5375153;26;20221;-74
2024/04/16 06:41:34;;;;;;;2.07;1.63;;;7.00;99.90;;;;;;5377150;26;20229;-73
2024/04/16 06:44:00;;;;;;;3.93;1.80;;;7.00;99.90;;;;;;5369450;26;20222;-74
2024/04/16 06:46:25;;;;;;;1.93;1.57;;;6.90;99.90;;;;;;5380179;26;20222;-74
2024/04/16 06:48:51;;;;;;;2.07;1.70;;;6.80;99.90;;;;;;5380065;26;20261;-74
2024/04/16 06:51:16;;;;;;;2.03;1.80;;;6.70;99.90;;;;;;5379696;26;20241;-72
2024/04/16 06:53:42;;;;;;;4.10;1.90;;;6.50;99.90;;;;;;5379797;26;20681;-73
2024/04/16 06:56:08;;;;;;;5.23;1.37;;;6.50;99.90;;;;;;5376481;26;20648;-73
2024/04/16 06:58:33;;;;;;;5.40;2.00;;;6.50;99.90;;;;;;5356754;26;20543;-74
2024/04/16 07:01:00;;;;;;;4.83;2.00;;;6.50;99.90;;;;;;5359030;26;20234;-73
2024/04/16 07:03:25;;;;;;;3.30;1.83;;;6.50;99.90;;;;;;5353884;26;20285;-73
2024/04/16 07:05:51;;;;;;;7.63;1.90;;;6.30;99.90;;;;;;5379987;26;20908;-73
2024/04/16 07:08:18;;;;;;;1.30;1.20;;;6.30;99.90;;;;;;5361577;26;20264;-72
2024/04/16 07:10:45;;;;;;;2.83;1.37;;;6.20;99.90;;;;;;5364691;26;20536;-73
2024/04/16 07:13:11;;;;;;;1.60;1.37;;;6.20;99.90;;;;;;5365037;26;20594;-70
2024/04/16 07:15:37;;;;;;;4.87;1.20;;;6.10;99.90;;;;;;5353928;26;20457;-70
2024/04/16 07:18:02;;;;;;;1.10;0.90;;;6.10;99.90;;;;;;5353825;26;20265;-70
2024/04/16 07:20:28;;;;;;;1.50;1.40;;;6.10;99.90;;;;;;5373232;26;20222;-70
2024/04/16 07:22:54;;;;;;;3.10;1.00;;;6.10;99.90;;;;;;5379517;26;20342;-71
2024/04/16 07:25:19;;;;;;;4.30;1.93;;;6.00;99.90;;;;;;5379729;26;20268;-71
2024/04/16 07:27:45;;;;;;;2.00;0.80;;;6.00;99.90;;;;;;5372538;26;20603;-71
2024/04/16 07:30:10;;;;;;;2.63;1.20;;;6.00;99.90;;;;;;5362825;26;20707;-71
2024/04/16 07:32:36;;;;;;;1.00;0.77;;;6.00;99.90;;;;;;5379405;26;20214;-71
2024/04/16 07:35:02;;;;;;;1.90;1.00;;;6.00;99.90;;;;;;5379739;26;20709;-71
2024/04/16 07:37:27;;;;;;;1.10;0.90;;;6.10;99.90;;;;;;5356523;26;20215;-70
2024/04/16 07:39:53;;;;;;;1.87;1.20;;;6.10;99.90;;;;;;5373108;26;20255;-70
2024/04/16 07:42:18;;;;;;;1.30;0.80;;;6.00;99.90;;;;;;5379283;26;20209;-71
2024/04/16 07:44:44;;;;;;;1.47;1.10;;;6.00;99.90;;;;;;5379403;26;20213;-71
2024/04/16 07:47:09;;;;;;;1.03;0.90;;;6.10;99.90;;;;;;5379666;26;20225;-71
2024/04/16 07:49:35;;;;;;;0.87;0.73;;;6.10;99.90;;;;;;5378894;26;20205;-71
2024/04/16 07:52:00;;;;;;;2.10;0.83;;;6.10;99.90;;;;;;5379443;26;20311;-72
2024/04/16 07:54:26;;;;;;;1.30;1.20;;;6.20;99.90;;;;;;5366491;26;20561;-70
2024/04/16 07:56:52;;;;;;;3.63;1.33;;;6.40;99.90;;;;;;5360820;26;20219;-70
2024/04/16 07:59:19;;;;;;;1.83;1.27;;;6.50;99.90;;;;;;5365013;26;20268;-71
2024/04/16 08:01:44;;;;;;;1.20;0.80;;;6.50;99.90;;;;;;5378776;26;20783;-71
2024/04/16 08:04:10;;;;;;;1.30;1.20;;;6.60;99.90;;;;;;5378905;26;20540;-70
2024/04/16 08:06:35;;;;;;;1.83;1.20;;;6.60;99.90;;;;;;5380693;26;20252;-70
2024/04/16 08:09:01;;;;;;;3.30;1.63;;;6.70;99.90;;;;;;5382518;26;20380;-71
2024/04/16 08:11:26;;;;;;;2.57;1.30;;;6.70;99.90;;;;;;5382121;26;20326;-71
2024/04/16 08:13:53;;;;;;;1.97;1.33;;;6.80;99.90;;;;;;5373986;26;20276;-71
2024/04/16 08:16:19;;;;;;;2.00;1.83;;;6.80;99.90;;;;;;5359412;26;20218;-72
2024/04/16 08:18:44;;;;;;;1.70;1.60;;;7.00;99.90;;;;;;5373921;26;20834;-74
2024/04/16 08:21:10;;;;;;;2.00;1.40;;;7.10;99.90;;;;;;5363091;26;20499;-75
2024/04/16 08:23:36;;;;;;;1.40;1.20;;;7.20;99.90;;;;;;5371724;26;20237;-75
2024/04/16 08:26:04;;;;;;;3.13;2.20;;;7.50;99.90;;;;;;5382688;26;20268;-75
2024/04/16 08:28:30;;;;;;;2.07;1.57;;;7.60;99.90;;;;;;5383427;26;20974;-75
2024/04/16 08:30:57;;;;;;;2.50;2.10;;;7.70;99.90;;;;;;5383718;26;20534;-75
2024/04/16 08:33:23;;;;;;;3.40;1.80;;;7.80;99.90;;;;;;5381381;26;20455;-75
2024/04/16 08:35:49;;;;;;;2.00;1.70;;;8.00;99.90;;;;;;5381093;26;21096;-75
2024/04/16 08:38:15;;;;;;;10.23;1.70;;;8.30;99.90;;;;;;5383227;26;20217;-76
2024/04/16 08:40:41;;;;;;;2.40;1.70;;;8.40;99.90;;;;;;5382349;26;20455;-75
2024/04/16 08:43:08;;;;;;;3.73;1.87;;;8.50;99.90;;;;;;5382562;26;20451;-74
2024/04/16 08:45:34;;;;;;;3.20;2.03;;;8.60;99.90;;;;;;5366721;26;21010;-74
2024/04/16 08:48:00;;;;;;;5.00;2.60;;;8.80;99.90;;;;;;5367936;26;20501;-74
2024/04/16 08:50:28;;;;;;;2.27;1.67;;;9.00;99.90;;;;;;5377784;26;20225;-74
2024/04/16 08:52:58;;;;;;;3.77;2.23;;;9.40;99.90;;;;;;5381716;26;20512;-75
2024/04/16 08:55:25;;;;;;;2.53;1.93;;;9.60;99.90;;;;;;5381917;26;20448;-74
2024/04/16 08:57:51;;;;;;;4.93;2.20;;;9.50;99.90;;;;;;5380040;26;21039;-74
2024/04/16 09:00:17;;;;;;;4.70;2.00;;;9.60;99.90;;;;;;5362803;26;20475;-75
2024/04/16 09:02:44;;;;;;;2.77;1.87;;;9.60;99.90;;;;;;5380184;26;20716;-75
2024/04/16 09:05:10;;;;;;;3.87;1.90;;;9.80;99.90;;;;;;5368197;26;20587;-73
2024/04/16 09:07:38;;;;;;;2.63;1.60;;;9.80;99.90;;;;;;5352272;26;20473;-75
2024/04/16 09:10:29;;;;;;;2.30;2.10;;;9.90;99.90;;;;;;5378009;26;20460;-74
2024/04/16 09:12:55;;;;;;;6.53;1.73;;;9.70;99.90;;;;;;5381557;26;20448;-76
2024/04/16 09:15:21;;;;;;;6.10;1.60;;;9.80;99.90;;;;;;5378898;26;20998;-74
2024/04/16 09:17:49;;;;;;;7.50;1.70;;;10.00;99.90;;;;;;5365707;26;20241;-75
2024/04/16 09:20:19;;;;;;;3.00;1.40;;;10.40;99.90;;;;;;5380187;26;20459;-75
2024/04/16 09:22:49;;;;;;;2.27;1.67;;;10.60;99.90;;;;;;5373275;26;20451;-74
2024/04/16 09:25:15;;;;;;;4.03;1.73;;;10.60;99.90;;;;;;5347702;26;20513;-73
2024/04/16 09:27:44;;;;;;;1.30;1.10;;;10.70;99.90;;;;;;5363718;26;20465;-73
2024/04/16 09:30:11;;;;;;;3.27;1.23;;;10.70;99.90;;;;;;5377678;26;20463;-74
2024/04/16 09:32:37;;;;;;;2.07;1.13;;;10.90;99.90;;;;;;5380774;26;20574;-73
2024/04/16 09:35:03;;;;;;;5.43;1.77;;;10.90;99.90;;;;;;5381074;26;20863;-73
2024/04/16 09:37:28;;;;;;;5.80;1.57;;;10.80;99.90;;;;;;5379176;26;20471;-71
2024/04/16 09:39:55;;;;;;;3.73;1.40;;;11.00;99.90;;;;;;5366031;26;20874;-70
2024/04/16 09:42:22;;;;;;;3.50;1.70;;;11.20;99.90;;;;;;5380798;26;20535;-71
2024/04/16 09:44:48;;;;;;;8.43;1.23;;;11.20;99.90;;;;;;5381412;26;20456;-69
2024/04/16 09:47:16;;;;;;;1.10;1.00;;;11.20;99.90;;;;;;5379190;26;20471;-72
2024/04/16 09:49:42;;;;;;;6.37;2.23;;;11.30;99.90;;;;;;5379871;26;21037;-72
2024/04/16 09:52:09;;;;;;;3.03;0.97;;;11.40;99.90;;;;;;5381009;26;20496;-71
2024/04/16 09:54:37;;;;;;;4.17;1.50;;;11.60;99.90;;;;;;5381090;26;20439;-72
2024/04/16 09:57:05;;;;;;;1.83;1.43;;;11.90;99.90;;;;;;5381071;26;20436;-71
2024/04/16 09:59:32;;;;;;;16.40;1.40;;;12.20;99.90;;;;;;5380862;26;20560;-71
2024/04/16 10:01:58;;;;;;;5.00;1.30;;;12.90;99.90;;;;;;5380604;26;20503;-71
2024/04/16 10:04:25;;;;;;;3.00;1.17;;;13.70;99.90;;;;;;5380514;26;20570;-72
2024/04/16 10:06:51;;;;;;;2.80;1.20;;;13.90;99.90;;;;;;5380644;26;20544;-71
2024/04/16 10:09:19;;;;;;;2.20;0.97;;;14.10;99.90;;;;;;5363941;26;20449;-71
2024/04/16 10:11:48;;;;;;;3.83;1.50;;;14.80;99.90;;;;;;5380061;26;20579;-71
2024/04/16 10:14:14;;;;;;;2.83;1.20;;;16.10;99.90;;;;;;5361956;26;20531;-71
2024/04/16 10:16:41;;;;;;;2.90;1.47;;;17.90;99.90;;;;;;5361238;26;20444;-71
2024/04/16 10:19:06;;;;;;;2.27;1.23;;;18.90;99.90;;;;;;5368331;26;20849;-69
2024/04/16 10:21:39;;;;;;;3.10;1.47;;;19.50;99.90;;;;;;5370087;26;20302;-70
2024/04/16 10:24:10;;;;;;;3.30;0.97;;;19.50;87.40;;;;;;5380635;26;20564;-71
2024/04/16 10:26:47;;;;;;;2.37;1.20;;;18.80;79.00;;;;;;5380381;26;20516;-70
2024/04/16 10:29:16;;;;;;;4.10;1.20;;;18.00;88.20;;;;;;5380039;26;20942;-70
2024/04/16 10:31:44;;;;;;;2.43;1.80;;;17.30;98.60;;;;;;5379964;26;20504;-70
2024/04/16 10:34:24;;;;;;;5.13;1.30;;;16.70;99.90;;;;;;5380360;26;20487;-70
2024/04/16 10:36:51;;;;;;;3.20;1.37;;;16.10;99.90;;;;;;5380400;26;20436;-70
2024/04/16 10:39:17;;;;;;;3.10;1.40;;;15.70;99.90;;;;;;5380293;26;20971;-70
2024/04/16 10:41:53;;;;;;;2.17;1.10;;;15.50;99.90;;;;;;5379769;26;20520;-70
2024/04/16 10:44:22;;;;;;;4.03;1.07;;;15.40;99.90;;;;;;5379156;26;20486;-70
2024/04/16 10:46:51;;;;;;;2.83;1.53;;;15.20;99.90;;;;;;5380467;26;20493;-69
2024/04/16 10:49:22;;;;;;;2.67;1.57;;;15.10;99.90;;;;;;5380331;26;20451;-70
2024/04/16 10:51:50;;;;;;;4.23;1.30;;;14.90;99.90;;;;;;5379766;26;20448;-70
2024/04/16 10:54:16;;;;;;;1.17;1.07;;;14.80;99.90;;;;;;5378443;26;20448;-70
2024/04/16 10:56:42;;;;;;;4.13;1.30;;;14.70;99.90;;;;;;5380124;26;21180;-70
2024/04/16 10:59:12;;;;;;;1.67;1.20;;;14.80;99.90;;;;;;5380115;26;20213;-70
2024/04/16 11:01:46;;;;;;;3.10;1.40;;;14.90;99.90;;;;;;5379486;26;20229;-70
2024/04/16 11:04:13;;;;;;;2.30;1.37;;;14.80;99.90;;;;;;5379992;26;20447;-70
2024/04/16 11:06:43;;;;;;;4.50;1.30;;;14.80;99.90;;;;;;5378144;26;20803;-70
2024/04/16 11:09:10;;;;;;;2.40;1.60;;;14.80;99.90;;;;;;5380080;26;20441;-69
2024/04/16 11:11:38;;;;;;;2.37;1.40;;;14.50;99.90;;;;;;5379690;26;20569;-70
2024/04/16 11:14:06;;;;;;;1.43;1.33;;;14.20;99.90;;;;;;5379936;26;20492;-70
2024/04/16 11:16:32;;;;;;;3.23;1.47;;;14.10;99.90;;;;;;5379834;26;20491;-70
2024/04/16 11:18:58;;;;;;;2.63;1.70;;;13.90;99.90;;;;;;5379781;26;20443;-70
2024/04/16 11:21:29;;;;;;;3.73;1.20;;;13.80;99.90;;;;;;5379490;26;20234;-70
2024/04/16 11:23:57;;;;;;;1.40;1.30;;;13.80;99.90;;;;;;5379748;26;21090;-70
2024/04/16 11:26:22;;;;;;;1.67;1.43;;;13.80;99.90;;;;;;5379763;26;20499;-70
2024/04/16 11:28:51;;;;;;;4.47;2.00;;;13.60;99.90;;;;;;5379621;26;20503;-70
2024/04/16 11:31:18;;;;;;;2.17;1.30;;;13.50;99.90;;;;;;5379052;26;20285;-70
2024/04/16 11:33:43;;;;;;;2.33;1.47;;;13.20;99.90;;;;;;5377801;26;20970;-70
2024/04/16 11:36:10;;;;;;;2.50;1.30;;;12.90;99.90;;;;;;5377811;26;20490;-70
2024/04/16 11:38:36;;;;;;;2.00;1.70;;;12.80;99.90;;;;;;5379545;26;20210;-70
2024/04/16 11:41:03;;;;;;;1.73;1.00;;;12.50;99.90;;;;;;5379695;26;20467;-70
2024/04/16 11:43:29;;;;;;;2.07;1.23;;;12.20;99.90;;;;;;5382871;26;20496;-70
2024/04/16 11:45:55;;;;;;;0.90;0.70;;;11.80;99.90;;;;;;5382779;26;20447;-70
2024/04/16 11:48:20;;;;;;;1.57;1.47;;;11.40;99.90;;;;;;5382975;26;20491;-70
2024/04/16 11:50:46;;;;;;;3.63;1.17;;;11.00;99.90;;;;;;5382515;26;20229;-70
2024/04/16 11:53:11;;;;;;;1.30;1.00;;;10.70;99.90;;;;;;5382787;26;20209;-70
2024/04/16 11:55:37;;;;;;;1.93;1.10;;;10.40;99.90;;;;;;5382724;26;20206;-70
2024/04/16 11:58:03;;;;;;;1.40;1.27;;;10.10;99.90;;;;;;5382828;26;20210;-70
2024/04/16 12:00:28;;;;;;;8.23;1.40;;;9.90;99.90;;;;;;5382111;26;20229;-70
2024/04/16 12:02:54;;;;;;;3.40;0.97;;;9.70;99.90;;;;;;5380925;26;20330;-70
2024/04/16 12:05:19;;;;;;;1.20;0.90;;;9.60;99.90;;;;;;5382611;26;20598;-70
2024/04/16 12:07:47;;;;;;;1.20;1.00;;;9.50;99.90;;;;;;5382420;26;20222;-70
2024/04/16 12:10:14;;;;;;;1.30;0.90;;;9.50;99.90;;;;;;5382155;26;20233;-71
2024/04/16 12:12:39;;;;;;;3.20;1.40;;;9.50;99.90;;;;;;5382451;26;20427;-70
2024/04/16 12:15:05;;;;;;;0.90;0.67;;;9.50;99.90;;;;;;5382238;26;20436;-70
2024/04/16 12:17:31;;;;;;;9.50;0.90;;;9.60;99.90;;;;;;5382645;26;20260;-70
2024/04/16 12:19:56;;;;;;;1.30;0.80;;;9.70;99.90;;;;;;5381858;26;20244;-70
2024/04/16 12:22:22;;;;;;;0.80;0.70;;;9.80;99.90;;;;;;5382279;26;20252;-69
2024/04/16 12:24:47;;;;;;;1.10;0.80;;;9.90;99.90;;;;;;5382286;26;20209;-70
2024/04/16 12:27:13;;;;;;;2.10;1.00;;;10.70;99.90;;;;;;5382155;26;20214;-70
2024/04/16 12:29:38;;;;;;;1.77;0.97;;;11.80;99.90;;;;;;5370088;26;20219;-70
2024/04/16 12:32:04;;;;;;;2.30;0.90;;;13.00;99.90;;;;;;5356270;26;20218;-70
2024/04/16 12:34:30;;;;;;;1.90;0.90;;;13.60;99.90;;;;;;5382184;26;20218;-70
2024/04/16 12:36:55;;;;;;;2.20;1.20;;;14.00;99.90;;;;;;5382182;26;20483;-70
2024/04/16 12:39:21;;;;;;;2.73;1.17;;;14.40;99.90;;;;;;5369399;26;20225;-70
2024/04/16 12:41:47;;;;;;;2.47;1.20;;;14.70;99.90;;;;;;5379824;26;20343;-70
2024/04/16 12:44:12;;;;;;;3.00;1.10;;;15.00;99.90;;;;;;5375262;26;20272;-70
2024/04/16 12:46:38;;;;;;;1.90;1.30;;;15.20;99.90;;;;;;5382238;26;21121;-70
2024/04/16 12:49:03;;;;;;;2.83;1.40;;;15.40;99.90;;;;;;5382062;26;20264;-70